Smithville, Vermont
Current Conditions -  °F | °C
As of 4:54 PM on Tuesday 25 Nov 2014 (Local Time) from KVSF Reporting Station
Clear Clear  
Wind Chill: 44°   Ceiling: Unl
Heat Index: 44°   Visibility: 10mi
Dew Point: 25°   Wind: 3mph
Humidity: 47%   Direction: NA
Pressure: 29.96"   Gusts: NA
Location:  43.3729°N, 72.7116°W
Report Text: KVSF 252154Z AUTO VRB03KT 10SM CLR 07/M04 A2996 RMK AO2 SLP148 T00671039
Loading
Personal Weather Stations






























Interactive Weather Map New forecast layout! Learn more

10-Day Weather Forecast

Advertisements
Track Severe Weather on mobile